sensor_id;sensor_type;location;lat;lon;timestamp;pressure;altitude;pressure_sealevel;temperature;humidity
11339;BME280;5724;42.684;23.252;2023-05-01T00:01:02;94332.44;;;10.77;80.13
11339;BME280;5724;42.684;23.252;2023-05-01T00:03:29;94328.91;;;10.76;80.42
11339;BME280;5724;42.684;23.252;2023-05-01T00:05:59;94324.03;;;10.66;80.58
11339;BME280;5724;42.684;23.252;2023-05-01T00:08:25;94323.59;;;10.64;80.97
11339;BME280;5724;42.684;23.252;2023-05-01T00:10:50;94323.81;;;10.75;80.53
11339;BME280;5724;42.684;23.252;2023-05-01T00:13:16;94336.38;;;10.60;81.23
11339;BME280;5724;42.684;23.252;2023-05-01T00:15:46;94331.94;;;10.52;81.92
11339;BME280;5724;42.684;23.252;2023-05-01T00:18:11;94313.09;;;10.47;81.45
11339;BME280;5724;42.684;23.252;2023-05-01T00:20:37;94339.31;;;10.51;81.92
11339;BME280;5724;42.684;23.252;2023-05-01T00:23:02;94336.03;;;10.42;82.20
11339;BME280;5724;42.684;23.252;2023-05-01T00:25:28;94329.97;;;10.33;83.00
11339;BME280;5724;42.684;23.252;2023-05-01T00:27:53;94339.84;;;10.22;83.32
11339;BME280;5724;42.684;23.252;2023-05-01T00:30:19;94330.00;;;10.01;84.03
11339;BME280;5724;42.684;23.252;2023-05-01T00:32:44;94333.81;;;9.97;84.58
11339;BME280;5724;42.684;23.252;2023-05-01T00:35:10;94334.78;;;10.04;84.26
11339;BME280;5724;42.684;23.252;2023-05-01T00:37:36;94329.81;;;10.10;84.09
11339;BME280;5724;42.684;23.252;2023-05-01T00:40:02;94335.44;;;10.17;84.34
11339;BME280;5724;42.684;23.252;2023-05-01T00:42:34;94335.88;;;10.19;83.94
11339;BME280;5724;42.684;23.252;2023-05-01T00:45:00;94335.78;;;10.31;83.43
11339;BME280;5724;42.684;23.252;2023-05-01T00:47:25;94341.09;;;10.24;83.61
11339;BME280;5724;42.684;23.252;2023-05-01T00:49:51;94349.44;;;10.31;82.95
11339;BME280;5724;42.684;23.252;2023-05-01T00:52:17;94347.06;;;10.30;83.29
11339;BME280;5724;42.684;23.252;2023-05-01T00:54:42;94346.38;;;10.33;83.40
11339;BME280;5724;42.684;23.252;2023-05-01T00:57:09;94336.22;;;10.34;83.12
11339;BME280;5724;42.684;23.252;2023-05-01T00:59:35;94352.41;;;10.42;83.02
11339;BME280;5724;42.684;23.252;2023-05-01T01:02:01;94362.53;;;10.42;82.91
11339;BME280;5724;42.684;23.252;2023-05-01T01:04:27;94367.72;;;10.47;83.22
11339;BME280;5724;42.684;23.252;2023-05-01T01:10:00;94362.41;;;10.54;82.67
11339;BME280;5724;42.684;23.252;2023-05-01T01:18:03;94359.53;;;10.47;82.58
11339;BME280;5724;42.684;23.252;2023-05-01T01:20:45;94367.47;;;10.52;82.31
11339;BME280;5724;42.684;23.252;2023-05-01T01:23:41;94367.56;;;10.40;82.37
11339;BME280;5724;42.684;23.252;2023-05-01T01:26:46;94370.03;;;10.45;82.30
11339;BME280;5724;42.684;23.252;2023-05-01T01:32:23;94373.16;;;10.27;82.90
11339;BME280;5724;42.684;23.252;2023-05-01T01:34:54;94368.84;;;10.26;83.11
11339;BME280;5724;42.684;23.252;2023-05-01T01:37:31;94370.41;;;10.27;83.38
11339;BME280;5724;42.684;23.252;2023-05-01T01:42:36;94357.78;;;9.88;85.37
11339;BME280;5724;42.684;23.252;2023-05-01T01:45:09;94373.94;;;10.12;85.10
11339;BME280;5724;42.684;23.252;2023-05-01T01:47:38;94365.53;;;10.21;84.73
11339;BME280;5724;42.684;23.252;2023-05-01T01:50:06;94367.16;;;10.22;84.71
11339;BME280;5724;42.684;23.252;2023-05-01T01:52:35;94364.88;;;10.08;84.80
11339;BME280;5724;42.684;23.252;2023-05-01T01:55:08;94367.16;;;10.22;84.82
11339;BME280;5724;42.684;23.252;2023-05-01T01:57:39;94361.78;;;10.25;84.86
11339;BME280;5724;42.684;23.252;2023-05-01T02:00:09;94367.25;;;10.25;84.77
11339;BME280;5724;42.684;23.252;2023-05-01T02:02:38;94364.59;;;10.29;84.67
11339;BME280;5724;42.684;23.252;2023-05-01T02:05:12;94373.16;;;10.27;84.50
11339;BME280;5724;42.684;23.252;2023-05-01T02:07:39;94358.09;;;10.34;84.78
11339;BME280;5724;42.684;23.252;2023-05-01T02:10:07;94360.44;;;10.35;84.47
11339;BME280;5724;42.684;23.252;2023-05-01T02:12:35;94355.91;;;10.23;85.11
11339;BME280;5724;42.684;23.252;2023-05-01T02:15:02;94353.03;;;10.20;85.42
11339;BME280;5724;42.684;23.252;2023-05-01T02:17:29;94355.09;;;10.23;85.24
11339;BME280;5724;42.684;23.252;2023-05-01T02:19:56;94365.69;;;10.24;85.46
11339;BME280;5724;42.684;23.252;2023-05-01T02:22:22;94352.44;;;10.26;85.45
11339;BME280;5724;42.684;23.252;2023-05-01T02:24:51;94347.72;;;10.23;85.39
11339;BME280;5724;42.684;23.252;2023-05-01T02:27:27;94351.47;;;10.19;85.75
11339;BME280;5724;42.684;23.252;2023-05-01T02:29:55;94349.88;;;10.18;86.17
11339;BME280;5724;42.684;23.252;2023-05-01T02:32:22;94358.88;;;10.18;86.69
11339;BME280;5724;42.684;23.252;2023-05-01T02:34:47;94349.03;;;10.14;86.75
11339;BME280;5724;42.684;23.252;2023-05-01T02:37:14;94359.28;;;10.20;86.20
11339;BME280;5724;42.684;23.252;2023-05-01T02:39:40;94350.69;;;10.18;86.42
11339;BME280;5724;42.684;23.252;2023-05-01T02:42:07;94349.81;;;10.14;86.96
11339;BME280;5724;42.684;23.252;2023-05-01T02:44:39;94355.97;;;10.11;86.56
11339;BME280;5724;42.684;23.252;2023-05-01T02:47:07;94359.47;;;10.12;86.86
11339;BME280;5724;42.684;23.252;2023-05-01T02:49:36;94365.72;;;10.12;86.65
11339;BME280;5724;42.684;23.252;2023-05-01T02:52:02;94368.13;;;10.14;86.42
11339;BME280;5724;42.684;23.252;2023-05-01T02:54:29;94363.66;;;10.06;86.62
11339;BME280;5724;42.684;23.252;2023-05-01T02:56:55;94367.78;;;9.99;87.15
11339;BME280;5724;42.684;23.252;2023-05-01T02:59:22;94354.75;;;9.93;87.65
11339;BME280;5724;42.684;23.252;2023-05-01T03:01:47;94363.84;;;9.97;87.08
11339;BME280;5724;42.684;23.252;2023-05-01T03:04:13;94365.78;;;9.96;87.28
11339;BME280;5724;42.684;23.252;2023-05-01T03:06:38;94364.81;;;9.89;88.17
11339;BME280;5724;42.684;23.252;2023-05-01T03:09:04;94368.50;;;9.81;88.77
11339;BME280;5724;42.684;23.252;2023-05-01T03:11:30;94365.34;;;9.79;88.70
11339;BME280;5724;42.684;23.252;2023-05-01T03:13:55;94364.19;;;9.64;88.80
11339;BME280;5724;42.684;23.252;2023-05-01T03:16:21;94362.53;;;9.59;88.83
11339;BME280;5724;42.684;23.252;2023-05-01T03:18:46;94365.25;;;9.43;88.64
11339;BME280;5724;42.684;23.252;2023-05-01T03:21:12;94366.81;;;9.29;89.87
11339;BME280;5724;42.684;23.252;2023-05-01T03:23:38;94363.19;;;9.25;89.45
11339;BME280;5724;42.684;23.252;2023-05-01T03:26:03;94366.88;;;9.16;90.42
11339;BME280;5724;42.684;23.252;2023-05-01T03:28:29;94367.19;;;8.99;91.58
11339;BME280;5724;42.684;23.252;2023-05-01T03:30:54;94362.00;;;8.94;92.10
11339;BME280;5724;42.684;23.252;2023-05-01T03:33:20;94366.41;;;8.99;91.58
11339;BME280;5724;42.684;23.252;2023-05-01T03:35:46;94367.34;;;8.91;92.11
11339;BME280;5724;42.684;23.252;2023-05-01T03:38:12;94356.41;;;8.75;92.19
11339;BME280;5724;42.684;23.252;2023-05-01T03:40:37;94378.94;;;8.87;91.67
11339;BME280;5724;42.684;23.252;2023-05-01T03:43:03;94372.66;;;8.71;92.13
11339;BME280;5724;42.684;23.252;2023-05-01T03:45:28;94380.34;;;8.41;93.83
11339;BME280;5724;42.684;23.252;2023-05-01T03:47:54;94383.28;;;8.36;93.94
11339;BME280;5724;42.684;23.252;2023-05-01T03:50:19;94393.47;;;8.39;93.41
11339;BME280;5724;42.684;23.252;2023-05-01T03:52:44;94389.63;;;8.28;93.93
11339;BME280;5724;42.684;23.252;2023-05-01T03:55:10;94396.91;;;8.12;94.94
11339;BME280;5724;42.684;23.252;2023-05-01T03:57:36;94401.00;;;8.06;95.25
11339;BME280;5724;42.684;23.252;2023-05-01T04:00:01;94408.13;;;8.10;94.70
11339;BME280;5724;42.684;23.252;2023-05-01T04:02:29;94415.59;;;7.89;96.44
11339;BME280;5724;42.684;23.252;2023-05-01T04:04:55;94397.81;;;7.67;98.07
11339;BME280;5724;42.684;23.252;2023-05-01T04:07:23;94412.69;;;7.82;98.32
11339;BME280;5724;42.684;23.252;2023-05-01T04:09:48;94420.84;;;7.94;97.50
11339;BME280;5724;42.684;23.252;2023-05-01T04:12:14;94411.19;;;7.84;98.04
11339;BME280;5724;42.684;23.252;2023-05-01T04:14:40;94420.03;;;7.93;98.26
11339;BME280;5724;42.684;23.252;2023-05-01T04:17:07;94409.38;;;8.00;97.91
11339;BME280;5724;42.684;23.252;2023-05-01T04:19:32;94418.81;;;8.03;98.08
11339;BME280;5724;42.684;23.252;2023-05-01T04:21:59;94413.34;;;8.03;98.79
11339;BME280;5724;42.684;23.252;2023-05-01T04:24:24;94418.69;;;8.12;98.53
11339;BME280;5724;42.684;23.252;2023-05-01T04:26:50;94409.81;;;8.15;98.76
11339;BME280;5724;42.684;23.252;2023-05-01T04:29:15;94413.91;;;8.21;98.92
11339;BME280;5724;42.684;23.252;2023-05-01T04:31:41;94411.03;;;8.29;98.66
11339;BME280;5724;42.684;23.252;2023-05-01T04:34:07;94400.28;;;8.33;98.19
11339;BME280;5724;42.684;23.252;2023-05-01T04:36:33;94404.72;;;8.50;98.26
11339;BME280;5724;42.684;23.252;2023-05-01T04:38:58;94418.38;;;8.66;97.93
11339;BME280;5724;42.684;23.252;2023-05-01T04:41:24;94415.31;;;8.79;97.38
11339;BME280;5724;42.684;23.252;2023-05-01T04:43:49;94413.50;;;8.71;97.47
11339;BME280;5724;42.684;23.252;2023-05-01T04:46:14;94419.69;;;8.84;97.11
11339;BME280;5724;42.684;23.252;2023-05-01T04:48:40;94416.94;;;8.96;96.72
11339;BME280;5724;42.684;23.252;2023-05-01T04:51:05;94422.06;;;8.98;96.50
11339;BME280;5724;42.684;23.252;2023-05-01T04:53:31;94420.94;;;9.14;96.01
11339;BME280;5724;42.684;23.252;2023-05-01T04:55:56;94420.34;;;9.21;95.31
11339;BME280;5724;42.684;23.252;2023-05-01T04:58:22;94418.97;;;9.27;94.76
11339;BME280;5724;42.684;23.252;2023-05-01T05:00:48;94429.22;;;9.46;94.40
11339;BME280;5724;42.684;23.252;2023-05-01T05:03:14;94433.53;;;9.63;92.84
11339;BME280;5724;42.684;23.252;2023-05-01T05:05:43;94434.78;;;9.65;92.77
11339;BME280;5724;42.684;23.252;2023-05-01T05:08:08;94434.94;;;9.72;92.77
11339;BME280;5724;42.684;23.252;2023-05-01T05:10:34;94432.41;;;9.80;92.32
11339;BME280;5724;42.684;23.252;2023-05-01T05:13:00;94434.00;;;9.81;91.89
11339;BME280;5724;42.684;23.252;2023-05-01T05:15:25;94443.25;;;9.92;92.00
11339;BME280;5724;42.684;23.252;2023-05-01T05:17:50;94455.81;;;9.81;92.37
11339;BME280;5724;42.684;23.252;2023-05-01T05:20:16;94454.25;;;9.80;92.67
11339;BME280;5724;42.684;23.252;2023-05-01T05:22:41;94462.75;;;9.62;93.75
11339;BME280;5724;42.684;23.252;2023-05-01T05:25:07;94459.34;;;9.65;94.50
11339;BME280;5724;42.684;23.252;2023-05-01T05:27:33;94456.25;;;9.67;94.45
11339;BME280;5724;42.684;23.252;2023-05-01T05:30:05;94467.28;;;9.86;94.62
11339;BME280;5724;42.684;23.252;2023-05-01T05:32:32;94468.25;;;10.10;93.61
11339;BME280;5724;42.684;23.252;2023-05-01T05:34:58;94475.41;;;10.14;91.84
11339;BME280;5724;42.684;23.252;2023-05-01T05:37:23;94474.69;;;10.17;92.57
11339;BME280;5724;42.684;23.252;2023-05-01T05:39:50;94480.88;;;10.46;91.64
11339;BME280;5724;42.684;23.252;2023-05-01T05:42:16;94485.25;;;10.66;90.57
11339;BME280;5724;42.684;23.252;2023-05-01T05:44:41;94477.13;;;10.70;90.37
11339;BME280;5724;42.684;23.252;2023-05-01T05:47:07;94465.28;;;10.81;89.52
11339;BME280;5724;42.684;23.252;2023-05-01T05:49:32;94488.41;;;11.03;88.03
11339;BME280;5724;42.684;23.252;2023-05-01T05:51:58;94478.91;;;11.16;87.36
11339;BME280;5724;42.684;23.252;2023-05-01T05:54:23;94483.53;;;11.32;86.61
11339;BME280;5724;42.684;23.252;2023-05-01T05:56:49;94476.53;;;11.54;86.78
11339;BME280;5724;42.684;23.252;2023-05-01T05:59:15;94475.47;;;11.58;85.53
11339;BME280;5724;42.684;23.252;2023-05-01T06:01:41;94479.91;;;11.66;84.60
11339;BME280;5724;42.684;23.252;2023-05-01T06:04:07;94482.84;;;11.77;84.73
11339;BME280;5724;42.684;23.252;2023-05-01T06:06:32;94471.22;;;11.61;84.20
11339;BME280;5724;42.684;23.252;2023-05-01T06:08:58;94484.97;;;11.64;84.89
11339;BME280;5724;42.684;23.252;2023-05-01T06:11:25;94488.31;;;11.96;83.85
11339;BME280;5724;42.684;23.252;2023-05-01T06:13:51;94494.38;;;11.86;84.59
11339;BME280;5724;42.684;23.252;2023-05-01T06:16:16;94494.34;;;11.44;85.62
11339;BME280;5724;42.684;23.252;2023-05-01T06:18:42;94492.44;;;11.67;85.86
11339;BME280;5724;42.684;23.252;2023-05-01T06:21:07;94497.69;;;11.95;85.56
11339;BME280;5724;42.684;23.252;2023-05-01T06:23:33;94492.06;;;12.08;84.42
11339;BME280;5724;42.684;23.252;2023-05-01T06:25:59;94496.31;;;12.28;84.13
11339;BME280;5724;42.684;23.252;2023-05-01T06:28:24;94502.72;;;12.36;82.87
11339;BME280;5724;42.684;23.252;2023-05-01T06:30:50;94493.25;;;12.33;83.23
11339;BME280;5724;42.684;23.252;2023-05-01T06:33:16;94493.44;;;12.44;83.29
11339;BME280;5724;42.684;23.252;2023-05-01T06:35:41;94503.59;;;12.43;82.63
11339;BME280;5724;42.684;23.252;2023-05-01T06:38:07;94492.09;;;12.57;82.69
11339;BME280;5724;42.684;23.252;2023-05-01T06:40:32;94493.72;;;12.61;82.71
11339;BME280;5724;42.684;23.252;2023-05-01T06:43:01;94495.38;;;12.43;83.23
11339;BME280;5724;42.684;23.252;2023-05-01T06:45:26;94498.56;;;12.72;82.24
11339;BME280;5724;42.684;23.252;2023-05-01T06:47:53;94483.81;;;12.80;81.70
11339;BME280;5724;42.684;23.252;2023-05-01T06:50:19;94499.22;;;12.61;81.84
11339;BME280;5724;42.684;23.252;2023-05-01T06:52:44;94495.03;;;12.22;82.36
11339;BME280;5724;42.684;23.252;2023-05-01T06:55:10;94492.81;;;12.54;81.62
11339;BME280;5724;42.684;23.252;2023-05-01T06:57:36;94499.50;;;12.79;80.93
11339;BME280;5724;42.684;23.252;2023-05-01T07:00:02;94498.03;;;12.85;80.05
11339;BME280;5724;42.684;23.252;2023-05-01T07:02:28;94506.28;;;13.15;79.13
11339;BME280;5724;42.684;23.252;2023-05-01T07:04:53;94512.63;;;13.20;79.03
11339;BME280;5724;42.684;23.252;2023-05-01T07:07:18;94494.78;;;13.33;79.25
11339;BME280;5724;42.684;23.252;2023-05-01T07:09:44;94504.63;;;13.67;78.52
11339;BME280;5724;42.684;23.252;2023-05-01T07:12:09;94512.75;;;13.60;76.90
11339;BME280;5724;42.684;23.252;2023-05-01T07:14:35;94511.50;;;13.84;74.88
11339;BME280;5724;42.684;23.252;2023-05-01T07:17:02;94517.25;;;13.42;75.04
11339;BME280;5724;42.684;23.252;2023-05-01T07:19:27;94518.25;;;13.60;75.18
11339;BME280;5724;42.684;23.252;2023-05-01T07:21:53;94517.19;;;13.68;73.22
11339;BME280;5724;42.684;23.252;2023-05-01T07:24:18;94513.41;;;14.17;72.16
11339;BME280;5724;42.684;23.252;2023-05-01T07:26:45;94523.19;;;14.52;71.32
11339;BME280;5724;42.684;23.252;2023-05-01T07:29:11;94521.16;;;14.89;69.97
11339;BME280;5724;42.684;23.252;2023-05-01T07:31:37;94521.72;;;14.62;68.91
11339;BME280;5724;42.684;23.252;2023-05-01T07:34:03;94518.50;;;14.56;67.75
11339;BME280;5724;42.684;23.252;2023-05-01T07:36:29;94516.06;;;14.95;67.04
11339;BME280;5724;42.684;23.252;2023-05-01T07:38:55;94524.78;;;15.04;67.00
11339;BME280;5724;42.684;23.252;2023-05-01T07:41:22;94521.75;;;15.16;66.69
11339;BME280;5724;42.684;23.252;2023-05-01T07:43:49;94519.38;;;15.18;67.37
11339;BME280;5724;42.684;23.252;2023-05-01T07:46:15;94519.97;;;14.87;68.26
11339;BME280;5724;42.684;23.252;2023-05-01T07:48:41;94519.16;;;14.42;68.80
11339;BME280;5724;42.684;23.252;2023-05-01T07:51:07;94513.75;;;14.97;69.20
11339;BME280;5724;42.684;23.252;2023-05-01T07:53:32;94509.84;;;15.05;68.53
11339;BME280;5724;42.684;23.252;2023-05-01T07:56:05;94517.94;;;15.42;66.81
11339;BME280;5724;42.684;23.252;2023-05-01T07:58:31;94515.78;;;15.80;66.30
11339;BME280;5724;42.684;23.252;2023-05-01T08:00:57;94522.56;;;16.04;65.71
11339;BME280;5724;42.684;23.252;2023-05-01T08:03:23;94517.06;;;16.11;65.84
11339;BME280;5724;42.684;23.252;2023-05-01T08:05:48;94503.31;;;16.29;63.34
11339;BME280;5724;42.684;23.252;2023-05-01T08:08:14;94511.22;;;16.48;59.47
11339;BME280;5724;42.684;23.252;2023-05-01T08:10:44;94517.59;;;16.70;58.62
11339;BME280;5724;42.684;23.252;2023-05-01T08:13:10;94514.06;;;16.91;58.51
11339;BME280;5724;42.684;23.252;2023-05-01T08:15:35;94501.81;;;16.78;57.23
11339;BME280;5724;42.684;23.252;2023-05-01T08:18:06;94510.88;;;17.10;57.13
11339;BME280;5724;42.684;23.252;2023-05-01T08:20:34;94506.56;;;16.95;56.95
11339;BME280;5724;42.684;23.252;2023-05-01T08:23:00;94510.50;;;16.87;55.66
11339;BME280;5724;42.684;23.252;2023-05-01T08:25:26;94507.72;;;17.23;55.18
11339;BME280;5724;42.684;23.252;2023-05-01T08:27:52;94507.31;;;17.31;55.89
11339;BME280;5724;42.684;23.252;2023-05-01T08:30:18;94510.44;;;17.37;56.37
11339;BME280;5724;42.684;23.252;2023-05-01T08:32:44;94507.22;;;17.63;54.13
11339;BME280;5724;42.684;23.252;2023-05-01T08:35:09;94505.22;;;17.74;51.89
11339;BME280;5724;42.684;23.252;2023-05-01T08:37:34;94505.59;;;17.87;51.46
11339;BME280;5724;42.684;23.252;2023-05-01T08:40:00;94508.31;;;17.98;52.40
11339;BME280;5724;42.684;23.252;2023-05-01T08:42:28;94504.59;;;18.22;52.77
11339;BME280;5724;42.684;23.252;2023-05-01T08:44:54;94508.56;;;18.25;52.23
11339;BME280;5724;42.684;23.252;2023-05-01T08:47:23;94498.31;;;18.18;51.39
11339;BME280;5724;42.684;23.252;2023-05-01T08:49:49;94501.13;;;18.11;51.71
11339;BME280;5724;42.684;23.252;2023-05-01T08:52:17;94495.22;;;18.06;51.87
11339;BME280;5724;42.684;23.252;2023-05-01T08:54:44;94460.06;;;18.06;50.79
11339;BME280;5724;42.684;23.252;2023-05-01T08:57:12;94494.66;;;18.36;51.11
11339;BME280;5724;42.684;23.252;2023-05-01T08:59:39;94496.63;;;18.39;51.50
11339;BME280;5724;42.684;23.252;2023-05-01T09:02:07;94500.94;;;18.43;51.86
11339;BME280;5724;42.684;23.252;2023-05-01T09:04:42;94492.81;;;18.11;49.89
11339;BME280;5724;42.684;23.252;2023-05-01T09:07:08;94495.97;;;18.13;49.41
11339;BME280;5724;42.684;23.252;2023-05-01T09:09:34;94495.56;;;18.18;49.59
11339;BME280;5724;42.684;23.252;2023-05-01T09:12:24;94492.13;;;17.96;49.68
11339;BME280;5724;42.684;23.252;2023-05-01T09:14:51;94486.13;;;18.09;49.27
11339;BME280;5724;42.684;23.252;2023-05-01T09:17:17;94484.75;;;18.38;49.45
11339;BME280;5724;42.684;23.252;2023-05-01T09:19:44;94484.50;;;18.77;49.85
11339;BME280;5724;42.684;23.252;2023-05-01T09:22:09;94487.97;;;18.88;47.78
11339;BME280;5724;42.684;23.252;2023-05-01T09:24:35;94482.75;;;18.98;47.63
11339;BME280;5724;42.684;23.252;2023-05-01T09:27:01;94482.97;;;18.69;47.98
11339;BME280;5724;42.684;23.252;2023-05-01T09:29:40;94493.56;;;18.81;46.73
11339;BME280;5724;42.684;23.252;2023-05-01T09:34:37;94493.31;;;18.65;47.42
11339;BME280;5724;42.684;23.252;2023-05-01T09:37:03;94486.19;;;18.60;46.38
11339;BME280;5724;42.684;23.252;2023-05-01T09:39:28;94488.16;;;18.60;46.06
11339;BME280;5724;42.684;23.252;2023-05-01T09:41:54;94493.88;;;18.94;44.64
11339;BME280;5724;42.684;23.252;2023-05-01T09:44:20;94481.78;;;18.74;42.78
11339;BME280;5724;42.684;23.252;2023-05-01T09:46:45;94485.25;;;18.81;43.74
11339;BME280;5724;42.684;23.252;2023-05-01T09:49:11;94483.38;;;19.16;44.53
11339;BME280;5724;42.684;23.252;2023-05-01T09:51:37;94480.97;;;19.18;44.02
11339;BME280;5724;42.684;23.252;2023-05-01T09:54:04;94486.19;;;19.12;44.45
11339;BME280;5724;42.684;23.252;2023-05-01T09:56:32;94482.91;;;19.25;46.40
11339;BME280;5724;42.684;23.252;2023-05-01T09:59:13;94479.75;;;19.64;48.16
11339;BME280;5724;42.684;23.252;2023-05-01T10:01:45;94469.19;;;19.86;46.40
11339;BME280;5724;42.684;23.252;2023-05-01T10:04:12;94474.84;;;19.75;47.14
11339;BME280;5724;42.684;23.252;2023-05-01T10:06:39;94474.78;;;19.82;46.12
11339;BME280;5724;42.684;23.252;2023-05-01T10:09:05;94472.50;;;20.04;45.33
11339;BME280;5724;42.684;23.252;2023-05-01T10:11:52;94471.63;;;19.80;45.90
11339;BME280;5724;42.684;23.252;2023-05-01T10:14:19;94472.88;;;19.38;46.29
11339;BME280;5724;42.684;23.252;2023-05-01T10:16:45;94473.69;;;19.35;45.94
11339;BME280;5724;42.684;23.252;2023-05-01T10:19:11;94452.63;;;18.55;45.87
11339;BME280;5724;42.684;23.252;2023-05-01T10:21:36;94467.94;;;18.11;48.16
11339;BME280;5724;42.684;23.252;2023-05-01T10:24:02;94464.03;;;18.60;47.31
11339;BME280;5724;42.684;23.252;2023-05-01T10:26:32;94464.19;;;18.95;46.56
11339;BME280;5724;42.684;23.252;2023-05-01T10:28:59;94461.16;;;19.23;44.62
11339;BME280;5724;42.684;23.252;2023-05-01T10:31:25;94475.63;;;19.41;45.19
11339;BME280;5724;42.684;23.252;2023-05-01T10:33:53;94458.81;;;19.18;45.08
11339;BME280;5724;42.684;23.252;2023-05-01T10:36:31;94471.09;;;19.55;46.48
11339;BME280;5724;42.684;23.252;2023-05-01T10:38:58;94469.38;;;19.68;44.80
11339;BME280;5724;42.684;23.252;2023-05-01T10:44:25;94463.19;;;19.57;46.73
11339;BME280;5724;42.684;23.252;2023-05-01T10:46:53;94470.44;;;19.43;48.72
11339;BME280;5724;42.684;23.252;2023-05-01T10:49:18;94467.59;;;19.13;49.13
11339;BME280;5724;42.684;23.252;2023-05-01T10:56:50;94467.69;;;19.02;47.75
11339;BME280;5724;42.684;23.252;2023-05-01T10:59:15;94469.47;;;18.78;48.96
11339;BME280;5724;42.684;23.252;2023-05-01T11:01:50;94464.94;;;19.02;47.77
11339;BME280;5724;42.684;23.252;2023-05-01T11:09:53;94464.75;;;18.75;46.10
11339;BME280;5724;42.684;23.252;2023-05-01T11:15:30;94468.50;;;18.99;45.79
11339;BME280;5724;42.684;23.252;2023-05-01T11:17:56;94467.13;;;19.18;45.46
11339;BME280;5724;42.684;23.252;2023-05-01T11:22:55;94465.56;;;19.17;44.23
11339;BME280;5724;42.684;23.252;2023-05-01T11:25:25;94464.75;;;18.75;45.42
11339;BME280;5724;42.684;23.252;2023-05-01T11:27:56;94460.97;;;18.48;46.06
11339;BME280;5724;42.684;23.252;2023-05-01T11:30:22;94461.66;;;18.66;45.88
11339;BME280;5724;42.684;23.252;2023-05-01T11:32:49;94442.56;;;18.82;46.58
11339;BME280;5724;42.684;23.252;2023-05-01T11:35:17;94459.25;;;19.16;44.71
11339;BME280;5724;42.684;23.252;2023-05-01T11:37:43;94458.94;;;19.45;46.24
11339;BME280;5724;42.684;23.252;2023-05-01T11:40:19;94464.78;;;19.54;46.13
11339;BME280;5724;42.684;23.252;2023-05-01T11:42:47;94459.19;;;19.61;44.27
11339;BME280;5724;42.684;23.252;2023-05-01T11:45:13;94452.22;;;19.80;44.46
11339;BME280;5724;42.684;23.252;2023-05-01T11:47:39;94465.03;;;20.01;44.80
11339;BME280;5724;42.684;23.252;2023-05-01T11:50:09;94451.19;;;20.28;43.82
11339;BME280;5724;42.684;23.252;2023-05-01T11:52:45;94455.03;;;20.38;43.21
11339;BME280;5724;42.684;23.252;2023-05-01T11:55:12;94453.59;;;20.56;43.39
11339;BME280;5724;42.684;23.252;2023-05-01T11:57:47;94450.75;;;20.60;43.38
11339;BME280;5724;42.684;23.252;2023-05-01T12:00:15;94438.16;;;20.52;44.56
11339;BME280;5724;42.684;23.252;2023-05-01T12:02:54;94447.19;;;20.60;44.29
11339;BME280;5724;42.684;23.252;2023-05-01T12:05:22;94447.28;;;20.52;42.94
11339;BME280;5724;42.684;23.252;2023-05-01T12:07:47;94445.22;;;20.29;43.49
11339;BME280;5724;42.684;23.252;2023-05-01T12:10:14;94447.09;;;20.36;44.08
11339;BME280;5724;42.684;23.252;2023-05-01T12:12:40;94456.34;;;20.26;44.00
11339;BME280;5724;42.684;23.252;2023-05-01T12:15:06;94457.38;;;20.39;43.25
11339;BME280;5724;42.684;23.252;2023-05-01T12:17:31;94458.75;;;20.54;42.63
11339;BME280;5724;42.684;23.252;2023-05-01T12:19:57;94459.13;;;20.26;44.08
11339;BME280;5724;42.684;23.252;2023-05-01T12:22:24;94446.91;;;19.93;43.31
11339;BME280;5724;42.684;23.252;2023-05-01T12:24:52;94452.47;;;19.93;43.46
11339;BME280;5724;42.684;23.252;2023-05-01T12:27:18;94446.03;;;19.69;44.31
11339;BME280;5724;42.684;23.252;2023-05-01T12:29:44;94432.44;;;19.44;44.65
11339;BME280;5724;42.684;23.252;2023-05-01T12:32:13;94439.81;;;19.20;43.71
11339;BME280;5724;42.684;23.252;2023-05-01T12:34:39;94450.97;;;19.13;44.72
11339;BME280;5724;42.684;23.252;2023-05-01T12:37:05;94457.09;;;18.94;44.99
11339;BME280;5724;42.684;23.252;2023-05-01T12:39:41;94450.59;;;18.66;45.35
11339;BME280;5724;42.684;23.252;2023-05-01T12:42:12;94441.25;;;18.46;45.40
11339;BME280;5724;42.684;23.252;2023-05-01T12:44:38;94451.44;;;18.52;45.19
11339;BME280;5724;42.684;23.252;2023-05-01T12:47:06;94452.91;;;18.71;44.74
11339;BME280;5724;42.684;23.252;2023-05-01T12:49:33;94448.06;;;18.86;44.00
11339;BME280;5724;42.684;23.252;2023-05-01T12:52:02;94448.88;;;19.24;44.23
11339;BME280;5724;42.684;23.252;2023-05-01T12:54:36;94443.94;;;19.42;42.89
11339;BME280;5724;42.684;23.252;2023-05-01T12:59:35;94452.97;;;19.84;42.85
11339;BME280;5724;42.684;23.252;2023-05-01T13:04:27;94450.69;;;19.76;42.31
11339;BME280;5724;42.684;23.252;2023-05-01T13:06:54;94454.16;;;19.83;42.75
11339;BME280;5724;42.684;23.252;2023-05-01T13:09:24;94456.38;;;19.95;41.83
11339;BME280;5724;42.684;23.252;2023-05-01T13:14:24;94449.91;;;20.06;40.53
11339;BME280;5724;42.684;23.252;2023-05-01T13:16:50;94464.81;;;20.19;40.46
11339;BME280;5724;42.684;23.252;2023-05-01T13:19:28;94454.66;;;20.05;40.29
11339;BME280;5724;42.684;23.252;2023-05-01T13:21:57;94458.47;;;20.18;41.04
11339;BME280;5724;42.684;23.252;2023-05-01T13:24:44;94464.22;;;20.31;39.88
11339;BME280;5724;42.684;23.252;2023-05-01T13:27:10;94469.97;;;20.47;40.82
11339;BME280;5724;42.684;23.252;2023-05-01T13:29:40;94465.75;;;20.63;41.04
11339;BME280;5724;42.684;23.252;2023-05-01T13:32:10;94468.09;;;20.91;38.86
11339;BME280;5724;42.684;23.252;2023-05-01T13:34:40;94469.22;;;20.94;39.10
11339;BME280;5724;42.684;23.252;2023-05-01T13:37:09;94467.38;;;20.87;39.78
11339;BME280;5724;42.684;23.252;2023-05-01T13:39:40;94459.03;;;21.10;41.03
11339;BME280;5724;42.684;23.252;2023-05-01T13:42:05;94457.78;;;21.15;41.45
11339;BME280;5724;42.684;23.252;2023-05-01T13:44:32;94464.34;;;21.01;42.99
11339;BME280;5724;42.684;23.252;2023-05-01T13:47:06;94473.28;;;21.12;43.28